Time;durP1;ratioP1;P1;durP2;ratioP2;P2;SDS_P1;SDS_P2;PMS_P1;PMS_P2;Temp;Humidity;BMP_temperature;BMP_pressure;BME280_temperature;BME280_humidity;BME280_pressure;Samples;Min_cycle;Max_cycle;Signal;HPM_P1;HPM_P2
2024/01/22 00:02:20;;;;;;;10.27;5.60;;;5.20;94.10;;;;;;4975537;28;20224;-66
2024/01/22 00:04:47;;;;;;;11.57;5.00;;;5.20;94.10;;;;;;4978569;28;20661;-67
2024/01/22 00:07:14;;;;;;;11.33;5.07;;;5.20;94.10;;;;;;4991809;28;20268;-66
2024/01/22 00:09:42;;;;;;;13.83;5.07;;;5.20;94.20;;;;;;4990000;28;20553;-67
2024/01/22 00:12:09;;;;;;;10.90;5.63;;;5.10;94.30;;;;;;4993249;28;20208;-65
2024/01/22 00:14:37;;;;;;;10.83;5.43;;;5.10;94.30;;;;;;4996001;28;20203;-66
2024/01/22 00:17:04;;;;;;;12.40;5.53;;;5.20;94.30;;;;;;4992505;28;20225;-66
2024/01/22 00:19:31;;;;;;;10.27;5.47;;;5.10;94.30;;;;;;4969631;28;20303;-66
2024/01/22 00:21:58;;;;;;;11.43;5.87;;;5.20;94.40;;;;;;4989032;28;20235;-67
2024/01/22 00:24:25;;;;;;;13.63;5.50;;;5.20;94.40;;;;;;4994354;28;20308;-67
2024/01/22 00:26:54;;;;;;;9.97;5.10;;;5.20;94.50;;;;;;4995269;28;20200;-67
2024/01/22 00:29:21;;;;;;;11.63;6.00;;;5.20;94.50;;;;;;4995207;28;20205;-68
2024/01/22 00:31:48;;;;;;;12.57;5.67;;;5.20;94.60;;;;;;4994495;28;20213;-67
2024/01/22 00:34:15;;;;;;;12.57;5.30;;;5.10;94.50;;;;;;4991651;28;20633;-67
2024/01/22 00:36:42;;;;;;;12.90;5.97;;;5.20;94.60;;;;;;4993026;28;20298;-68
2024/01/22 00:39:09;;;;;;;12.93;5.10;;;5.10;94.50;;;;;;4977233;28;20235;-67
2024/01/22 00:41:36;;;;;;;9.93;5.43;;;5.10;94.60;;;;;;4989405;28;20284;-67
2024/01/22 00:44:05;;;;;;;12.33;5.50;;;5.10;94.50;;;;;;4972809;28;20268;-67
2024/01/22 00:46:32;;;;;;;9.23;5.30;;;5.10;94.60;;;;;;4993920;28;20276;-66
2024/01/22 00:49:00;;;;;;;15.70;5.93;;;5.10;94.60;;;;;;4994397;28;20236;-67
2024/01/22 00:51:27;;;;;;;12.97;5.60;;;5.10;94.70;;;;;;4992335;28;20249;-67
2024/01/22 00:53:54;;;;;;;12.17;5.53;;;5.10;94.60;;;;;;4978566;28;20213;-66
2024/01/22 00:56:21;;;;;;;12.07;5.63;;;5.10;94.60;;;;;;4994003;28;20713;-66
2024/01/22 00:58:51;;;;;;;11.60;5.90;;;5.00;94.50;;;;;;4991729;28;20197;-67
2024/01/22 01:01:19;;;;;;;12.77;6.30;;;5.00;94.50;;;;;;4992894;28;20283;-67
2024/01/22 01:03:46;;;;;;;14.73;6.77;;;5.00;94.40;;;;;;4994159;28;20290;-67
2024/01/22 01:06:14;;;;;;;13.80;6.27;;;5.00;94.40;;;;;;4977163;28;20320;-67
2024/01/22 01:08:41;;;;;;;11.10;5.47;;;5.00;94.30;;;;;;4980084;28;20311;-68
2024/01/22 01:11:08;;;;;;;10.47;5.27;;;4.90;94.30;;;;;;4988882;28;20196;-68
2024/01/22 01:13:35;;;;;;;11.57;5.70;;;4.90;94.30;;;;;;4993528;28;20203;-66
2024/01/22 01:16:02;;;;;;;11.67;5.87;;;4.90;94.30;;;;;;4987237;28;20765;-66
2024/01/22 01:18:30;;;;;;;10.23;5.50;;;4.90;94.30;;;;;;4993770;28;20235;-67
2024/01/22 01:20:57;;;;;;;13.13;5.97;;;5.70;94.50;;;;;;4990346;28;20196;-66
2024/01/22 01:23:24;;;;;;;11.13;5.47;;;4.80;94.00;;;;;;4992922;28;20266;-67
2024/01/22 01:25:51;;;;;;;12.73;5.53;;;4.80;94.00;;;;;;4994030;28;20262;-66
2024/01/22 01:28:19;;;;;;;10.93;5.73;;;4.80;94.00;;;;;;4992782;28;20630;-66
2024/01/22 01:30:46;;;;;;;12.67;6.03;;;4.80;94.00;;;;;;4995253;28;20243;-66
2024/01/22 01:33:13;;;;;;;12.33;5.87;;;4.80;93.90;;;;;;4992427;28;20259;-66
2024/01/22 01:35:44;;;;;;;10.53;5.73;;;4.80;93.90;;;;;;4983668;28;20196;-66
2024/01/22 01:38:11;;;;;;;8.63;4.80;;;4.80;93.80;;;;;;4979673;28;20220;-66
2024/01/22 01:40:41;;;;;;;12.07;5.80;;;4.80;93.80;;;;;;4977685;28;20192;-67
2024/01/22 01:43:08;;;;;;;10.37;5.13;;;4.80;93.80;;;;;;4985562;28;20276;-68
2024/01/22 01:45:35;;;;;;;11.90;4.83;;;4.80;93.90;;;;;;4989098;28;20259;-68
2024/01/22 01:48:03;;;;;;;8.73;5.07;;;4.80;94.00;;;;;;4974777;28;20240;-67
2024/01/22 01:50:30;;;;;;;9.77;5.13;;;4.80;94.00;;;;;;4988537;28;20224;-65
2024/01/22 01:53:00;;;;;;;9.20;5.07;;;4.80;93.90;;;;;;4975233;28;20207;-66
2024/01/22 01:55:31;;;;;;;10.73;4.83;;;4.80;94.00;;;;;;4988688;28;20211;-66
2024/01/22 01:58:00;;;;;;;8.97;4.83;;;4.80;94.10;;;;;;4986000;28;20209;-66
2024/01/22 02:03:03;;;;;;;12.23;5.53;;;4.80;94.00;;;;;;5323428;22;20671;-67
2024/01/22 02:05:31;;;;;;;10.00;4.90;;;4.80;93.90;;;;;;5049738;28;20264;-67
2024/01/22 02:07:59;;;;;;;8.20;4.63;;;4.80;93.90;;;;;;5043036;28;20260;-67
2024/01/22 02:10:26;;;;;;;11.40;4.70;;;4.70;94.20;;;;;;5046567;28;20738;-68
2024/01/22 02:12:53;;;;;;;10.60;5.60;;;4.70;93.90;;;;;;5028628;28;20209;-67
2024/01/22 02:15:20;;;;;;;11.07;5.20;;;4.70;93.80;;;;;;5055667;28;20195;-67
2024/01/22 02:17:47;;;;;;;9.53;5.60;;;4.70;93.80;;;;;;5054845;28;20586;-67
2024/01/22 02:20:14;;;;;;;12.20;5.33;;;4.70;93.80;;;;;;5045420;28;20233;-67
2024/01/22 02:22:41;;;;;;;8.07;4.97;;;4.70;93.80;;;;;;5047715;28;20593;-67
2024/01/22 02:25:10;;;;;;;8.67;4.83;;;4.70;93.80;;;;;;5041959;28;20538;-67
2024/01/22 02:27:37;;;;;;;9.67;4.73;;;4.70;93.90;;;;;;5054280;28;20193;-68
2024/01/22 02:30:05;;;;;;;9.77;4.83;;;4.70;93.90;;;;;;5017781;28;20205;-67
2024/01/22 02:32:32;;;;;;;9.13;5.17;;;4.60;93.80;;;;;;5060183;28;20196;-68
2024/01/22 02:34:59;;;;;;;7.93;4.60;;;4.60;93.70;;;;;;5058815;28;20221;-67
2024/01/22 02:37:26;;;;;;;10.70;4.47;;;4.70;93.70;;;;;;5045905;28;20253;-68
2024/01/22 02:39:53;;;;;;;9.97;5.00;;;4.70;93.70;;;;;;5057093;28;20198;-67
2024/01/22 02:42:21;;;;;;;8.97;4.40;;;4.70;93.70;;;;;;5051120;28;20200;-67
2024/01/22 02:44:48;;;;;;;11.00;5.73;;;4.70;94.00;;;;;;5043073;28;20220;-68
2024/01/22 02:47:15;;;;;;;10.30;5.30;;;4.70;93.50;;;;;;5041540;28;20202;-68
2024/01/22 02:49:42;;;;;;;7.97;4.50;;;4.70;93.50;;;;;;5051514;28;20226;-68
2024/01/22 02:52:09;;;;;;;10.50;5.20;;;4.70;93.50;;;;;;5042890;28;20285;-68
2024/01/22 02:54:36;;;;;;;11.13;5.47;;;4.70;93.40;;;;;;5038338;28;20564;-68
2024/01/22 02:57:04;;;;;;;11.67;5.10;;;4.70;93.50;;;;;;5058869;28;20259;-68
2024/01/22 02:59:36;;;;;;;8.27;4.80;;;4.70;93.40;;;;;;5046724;28;20193;-68
2024/01/22 03:02:03;;;;;;;12.17;5.03;;;4.70;93.50;;;;;;5041152;28;20648;-68
2024/01/22 03:04:30;;;;;;;10.07;4.63;;;5.50;93.90;;;;;;5034270;28;20198;-68
2024/01/22 03:06:57;;;;;;;10.20;4.87;;;4.70;93.60;;;;;;5048385;28;20275;-68
2024/01/22 03:09:25;;;;;;;9.37;5.00;;;4.70;93.60;;;;;;5036704;28;20205;-68
2024/01/22 03:11:52;;;;;;;8.90;4.40;;;4.70;93.70;;;;;;5045348;28;20522;-68
2024/01/22 03:14:19;;;;;;;8.47;4.60;;;4.70;93.70;;;;;;5048939;28;20194;-69
2024/01/22 03:16:47;;;;;;;12.50;5.37;;;4.80;93.70;;;;;;5050753;28;20296;-68
2024/01/22 03:19:14;;;;;;;9.90;5.07;;;4.70;93.60;;;;;;5040031;28;20204;-69
2024/01/22 03:21:41;;;;;;;9.17;4.80;;;4.80;93.60;;;;;;5049971;28;20305;-68
2024/01/22 03:24:08;;;;;;;11.53;5.30;;;4.80;94.00;;;;;;5052124;28;20506;-68
2024/01/22 03:26:35;;;;;;;8.80;4.77;;;4.80;93.70;;;;;;5025222;28;20263;-68
2024/01/22 03:29:01;;;;;;;9.57;5.30;;;4.70;93.70;;;;;;5051898;28;20205;-67
2024/01/22 03:31:32;;;;;;;7.73;4.93;;;4.70;94.10;;;;;;5041999;28;20276;-67
2024/01/22 03:34:00;;;;;;;9.40;5.37;;;4.70;93.80;;;;;;5044979;28;20217;-68
2024/01/22 03:36:27;;;;;;;10.70;5.47;;;4.70;93.90;;;;;;5046795;28;20229;-68
2024/01/22 03:38:54;;;;;;;12.10;5.10;;;4.70;94.00;;;;;;5048570;28;20204;-68
2024/01/22 03:41:21;;;;;;;9.20;5.40;;;4.70;94.00;;;;;;5049001;28;20196;-68
2024/01/22 03:43:48;;;;;;;9.30;5.03;;;4.70;94.10;;;;;;5010006;28;20233;-68
2024/01/22 03:46:18;;;;;;;10.23;5.60;;;4.70;94.20;;;;;;5045853;28;20201;-68
2024/01/22 03:48:45;;;;;;;8.83;5.17;;;4.70;94.20;;;;;;5046103;28;20212;-69
2024/01/22 03:51:14;;;;;;;9.20;5.07;;;4.70;94.30;;;;;;5055895;28;20287;-70
2024/01/22 03:53:40;;;;;;;8.67;5.00;;;4.70;94.40;;;;;;5037470;28;20221;-68
2024/01/22 03:56:08;;;;;;;8.10;4.70;;;4.70;94.40;;;;;;5054681;28;20232;-69
2024/01/22 03:58:35;;;;;;;9.07;5.00;;;4.80;94.50;;;;;;5032009;28;20237;-69
2024/01/22 04:01:02;;;;;;;10.20;4.73;;;4.70;94.50;;;;;;5032859;28;20727;-68
2024/01/22 04:03:32;;;;;;;8.47;4.57;;;4.70;94.50;;;;;;5045137;28;20229;-68
2024/01/22 04:05:59;;;;;;;9.17;5.37;;;4.70;94.60;;;;;;5031246;28;20460;-69
2024/01/22 04:08:28;;;;;;;9.30;4.80;;;4.70;94.70;;;;;;5046098;28;20186;-68
2024/01/22 04:10:55;;;;;;;8.63;4.73;;;4.70;94.70;;;;;;5039145;28;20355;-69
2024/01/22 04:13:22;;;;;;;11.93;5.33;;;4.70;94.90;;;;;;5047185;28;20258;-68
2024/01/22 04:15:50;;;;;;;9.80;4.63;;;4.70;95.00;;;;;;5049124;28;20240;-69
2024/01/22 04:18:17;;;;;;;12.47;4.97;;;4.70;95.10;;;;;;5042037;28;20761;-68
2024/01/22 04:20:44;;;;;;;10.00;4.77;;;4.70;95.20;;;;;;5048355;28;20218;-69
2024/01/22 04:23:12;;;;;;;9.87;4.93;;;4.70;95.30;;;;;;5045843;28;20552;-68
2024/01/22 04:25:40;;;;;;;10.00;5.20;;;4.60;95.30;;;;;;5040639;28;20202;-69
2024/01/22 04:28:07;;;;;;;8.77;5.13;;;4.60;95.40;;;;;;5048464;28;20271;-68
2024/01/22 04:30:34;;;;;;;13.47;5.63;;;4.60;95.50;;;;;;5046957;28;20202;-68
2024/01/22 04:33:01;;;;;;;8.83;4.77;;;4.60;95.60;;;;;;5045160;28;20269;-69
2024/01/22 04:35:28;;;;;;;11.17;5.40;;;4.60;95.60;;;;;;5051529;28;20311;-67
2024/01/22 04:37:55;;;;;;;10.60;5.30;;;4.60;95.70;;;;;;5031426;28;20328;-68
2024/01/22 04:40:22;;;;;;;9.70;5.53;;;4.60;95.70;;;;;;5047025;28;20196;-67
2024/01/22 04:42:51;;;;;;;10.00;5.10;;;4.60;95.80;;;;;;5048954;28;20201;-67
2024/01/22 04:45:18;;;;;;;11.90;5.73;;;4.60;95.80;;;;;;5053938;28;20288;-69
2024/01/22 04:47:45;;;;;;;14.30;5.57;;;4.60;95.90;;;;;;5042060;28;20186;-70
2024/01/22 04:50:13;;;;;;;10.83;5.30;;;4.60;96.10;;;;;;5035534;28;20262;-69
2024/01/22 04:52:40;;;;;;;13.87;5.70;;;4.60;96.50;;;;;;5050740;28;20240;-68
2024/01/22 04:55:07;;;;;;;10.07;5.17;;;4.60;96.20;;;;;;5052695;28;20208;-68
2024/01/22 04:57:34;;;;;;;10.20;5.13;;;4.60;96.30;;;;;;5045946;28;20213;-68
2024/01/22 05:00:04;;;;;;;11.20;5.27;;;4.60;96.30;;;;;;5050856;28;20198;-68
2024/01/22 05:02:32;;;;;;;10.73;5.47;;;4.60;96.40;;;;;;5032943;28;20768;-69
2024/01/22 05:05:01;;;;;;;9.60;4.97;;;4.60;96.50;;;;;;5044464;28;20679;-68
2024/01/22 05:07:28;;;;;;;8.90;4.87;;;4.60;96.50;;;;;;5050844;28;20702;-68
2024/01/22 05:09:58;;;;;;;7.90;4.77;;;4.70;96.70;;;;;;5042712;28;20213;-69
2024/01/22 05:12:25;;;;;;;10.50;5.50;;;4.70;96.70;;;;;;5038450;28;20198;-69
2024/01/22 05:14:52;;;;;;;12.93;5.37;;;4.70;96.80;;;;;;5044258;28;20743;-68
2024/01/22 05:17:21;;;;;;;8.77;4.97;;;4.70;96.80;;;;;;5053941;28;20585;-67
2024/01/22 05:19:49;;;;;;;11.37;5.33;;;4.70;96.80;;;;;;5052721;28;20247;-67
2024/01/22 05:22:16;;;;;;;11.67;5.57;;;4.70;96.90;;;;;;5043309;28;20194;-68
2024/01/22 05:24:43;;;;;;;12.70;5.80;;;4.70;97.00;;;;;;5037040;28;21355;-67
2024/01/22 05:27:10;;;;;;;8.57;5.10;;;4.70;97.00;;;;;;5049044;28;20237;-68
2024/01/22 05:29:37;;;;;;;11.63;5.77;;;4.80;97.00;;;;;;5031749;28;20202;-69
2024/01/22 05:32:05;;;;;;;10.30;5.00;;;4.80;97.10;;;;;;5028661;28;20247;-68
2024/01/22 05:34:33;;;;;;;10.10;5.50;;;4.80;97.10;;;;;;5039074;28;20778;-68
2024/01/22 05:37:00;;;;;;;11.60;6.20;;;4.80;97.10;;;;;;5056365;28;20221;-68
2024/01/22 05:39:27;;;;;;;13.37;5.73;;;4.80;97.10;;;;;;5045696;28;20232;-69
2024/01/22 05:41:55;;;;;;;10.83;5.17;;;4.80;97.10;;;;;;5025781;28;20211;-67
2024/01/22 05:44:22;;;;;;;11.23;6.00;;;4.80;97.10;;;;;;5013691;28;20488;-67
2024/01/22 05:46:49;;;;;;;10.93;5.73;;;4.90;97.20;;;;;;5039236;28;20194;-67
2024/01/22 05:49:18;;;;;;;10.63;5.77;;;4.90;97.10;;;;;;5043783;28;20194;-68
2024/01/22 05:51:47;;;;;;;11.20;4.97;;;4.90;97.10;;;;;;5050425;28;20198;-69
2024/01/22 05:54:14;;;;;;;8.80;5.07;;;5.00;97.20;;;;;;5038985;28;20238;-68
2024/01/22 05:56:41;;;;;;;9.40;5.10;;;4.90;97.20;;;;;;5042891;28;20201;-68
2024/01/22 05:59:09;;;;;;;10.63;5.67;;;5.50;97.50;;;;;;5048859;28;20225;-68
2024/01/22 06:01:36;;;;;;;12.67;5.30;;;5.00;97.20;;;;;;5049428;28;20205;-69
2024/01/22 06:04:04;;;;;;;11.50;5.30;;;5.00;97.30;;;;;;5034023;28;20336;-68
2024/01/22 06:06:32;;;;;;;8.27;5.50;;;5.00;97.30;;;;;;5045181;28;20187;-69
2024/01/22 06:09:00;;;;;;;10.40;5.20;;;5.00;97.30;;;;;;5049774;28;20271;-68
2024/01/22 06:11:28;;;;;;;10.63;5.67;;;5.10;97.40;;;;;;5039792;28;20252;-69
2024/01/22 06:13:56;;;;;;;11.60;5.20;;;5.10;97.40;;;;;;5048408;28;20197;-67
2024/01/22 06:16:23;;;;;;;9.47;5.10;;;5.10;97.40;;;;;;5050448;28;20494;-68
2024/01/22 06:18:50;;;;;;;10.57;5.00;;;5.10;97.40;;;;;;5041898;28;20229;-69
2024/01/22 06:21:17;;;;;;;10.43;5.27;;;5.10;97.40;;;;;;5038913;28;20226;-68
2024/01/22 06:23:46;;;;;;;10.27;5.23;;;5.10;97.50;;;;;;5048356;28;20202;-68
2024/01/22 06:26:15;;;;;;;13.43;5.20;;;5.20;97.50;;;;;;5049241;28;20213;-68
2024/01/22 06:28:43;;;;;;;7.97;4.73;;;5.20;97.50;;;;;;5035787;28;20196;-68
2024/01/22 06:31:10;;;;;;;14.33;5.50;;;5.20;97.50;;;;;;5050480;28;20515;-68
2024/01/22 06:33:39;;;;;;;7.50;4.53;;;5.20;97.50;;;;;;5048942;28;20255;-68
2024/01/22 06:36:07;;;;;;;8.17;4.53;;;5.20;97.60;;;;;;5036114;28;20308;-69
2024/01/22 06:38:34;;;;;;;7.57;3.93;;;5.30;97.60;;;;;;5037861;28;20626;-68
2024/01/22 06:41:01;;;;;;;10.07;4.93;;;5.20;97.50;;;;;;5049247;28;20631;-68
2024/01/22 06:43:31;;;;;;;7.77;4.50;;;5.30;97.60;;;;;;5050482;28;20249;-68
2024/01/22 06:45:58;;;;;;;6.97;4.30;;;5.30;97.60;;;;;;5030710;28;20248;-66
2024/01/22 06:48:25;;;;;;;10.33;4.97;;;5.30;97.60;;;;;;5040036;28;20190;-68
2024/01/22 06:50:52;;;;;;;7.13;4.30;;;5.40;97.70;;;;;;5048478;28;20554;-69
2024/01/22 06:53:19;;;;;;;8.27;4.83;;;5.30;97.70;;;;;;5047565;28;20229;-69
2024/01/22 06:55:46;;;;;;;10.90;5.23;;;5.40;97.80;;;;;;5036720;28;20249;-69
2024/01/22 06:58:13;;;;;;;10.90;4.63;;;5.40;97.90;;;;;;5032230;28;20307;-68
2024/01/22 07:00:42;;;;;;;9.03;4.83;;;5.40;97.90;;;;;;5050075;28;20585;-69
2024/01/22 07:03:12;;;;;;;10.80;5.83;;;5.40;97.90;;;;;;5001803;28;20234;-68
2024/01/22 07:05:39;;;;;;;10.43;4.63;;;5.40;97.90;;;;;;5032043;28;20734;-69
2024/01/22 07:08:07;;;;;;;9.60;4.93;;;5.40;98.00;;;;;;5042309;28;20188;-69
2024/01/22 07:10:34;;;;;;;9.33;4.80;;;5.40;98.10;;;;;;5033752;28;20280;-69
2024/01/22 07:13:01;;;;;;;7.87;4.43;;;5.40;98.10;;;;;;5028668;28;20204;-68
2024/01/22 07:15:28;;;;;;;10.17;5.20;;;5.50;98.20;;;;;;5045411;28;20236;-69
2024/01/22 07:17:59;;;;;;;9.47;5.00;;;5.40;98.20;;;;;;5045215;28;20268;-69
2024/01/22 07:20:28;;;;;;;9.57;4.80;;;5.40;98.30;;;;;;5037344;28;20194;-69
2024/01/22 07:22:57;;;;;;;7.93;4.53;;;5.50;98.40;;;;;;5032628;28;20280;-69
2024/01/22 07:25:25;;;;;;;6.57;4.10;;;5.50;98.40;;;;;;5017037;28;20717;-68
2024/01/22 07:27:52;;;;;;;7.13;4.43;;;6.30;98.80;;;;;;5028850;28;20438;-69
2024/01/22 07:30:19;;;;;;;7.30;4.10;;;5.50;98.50;;;;;;5040479;28;20277;-68
2024/01/22 07:32:47;;;;;;;9.17;4.73;;;5.50;98.60;;;;;;5040460;28;20199;-69
2024/01/22 07:35:16;;;;;;;8.87;4.53;;;5.60;98.60;;;;;;5016089;28;20198;-68
2024/01/22 07:37:45;;;;;;;8.43;4.50;;;5.60;99.00;;;;;;5038427;28;20203;-69
2024/01/22 07:40:13;;;;;;;8.13;4.47;;;5.60;98.70;;;;;;5039379;28;20253;-68
2024/01/22 07:42:41;;;;;;;6.73;4.27;;;5.60;98.90;;;;;;5037267;28;20225;-68
2024/01/22 07:45:10;;;;;;;11.53;4.40;;;5.60;98.90;;;;;;5027128;28;20351;-68
2024/01/22 07:47:38;;;;;;;7.10;3.53;;;5.60;99.00;;;;;;5033664;28;20197;-69
2024/01/22 07:50:09;;;;;;;10.03;4.23;;;5.70;99.10;;;;;;5025849;28;20191;-69
2024/01/22 07:52:38;;;;;;;8.23;4.13;;;5.60;99.10;;;;;;5038907;28;20240;-69
2024/01/22 07:55:06;;;;;;;6.83;3.97;;;5.70;99.20;;;;;;5040978;28;20669;-69
2024/01/22 07:57:33;;;;;;;11.27;4.93;;;5.70;99.20;;;;;;5042378;28;20194;-67
2024/01/22 08:00:01;;;;;;;8.33;4.67;;;5.70;99.20;;;;;;5035597;28;20350;-69
2024/01/22 08:02:28;;;;;;;10.17;4.60;;;5.80;99.30;;;;;;5046078;28;20231;-69
2024/01/22 08:04:55;;;;;;;6.03;4.00;;;5.70;99.30;;;;;;5035126;28;20680;-68
2024/01/22 08:07:23;;;;;;;7.97;4.50;;;5.80;99.30;;;;;;5032341;28;20204;-68
2024/01/22 08:09:51;;;;;;;7.50;3.93;;;5.80;99.30;;;;;;5044785;28;20191;-68
2024/01/22 08:12:18;;;;;;;8.60;4.40;;;5.80;99.30;;;;;;5029535;28;20243;-67
2024/01/22 08:14:46;;;;;;;7.17;4.13;;;5.80;99.30;;;;;;5042999;28;20855;-69
2024/01/22 08:17:13;;;;;;;10.57;4.33;;;5.80;99.30;;;;;;5032367;28;20302;-69
2024/01/22 08:19:40;;;;;;;8.57;4.77;;;5.80;99.30;;;;;;5027963;28;20232;-69
2024/01/22 08:22:07;;;;;;;7.73;4.50;;;5.90;99.30;;;;;;5047355;28;20226;-69
2024/01/22 08:24:34;;;;;;;8.43;4.20;;;5.90;99.30;;;;;;5041428;28;20191;-69
2024/01/22 08:27:03;;;;;;;7.90;4.27;;;5.90;99.30;;;;;;5041923;28;20253;-69
2024/01/22 08:29:33;;;;;;;9.27;4.67;;;5.90;99.40;;;;;;5042799;28;20641;-69
2024/01/22 08:32:00;;;;;;;7.63;4.43;;;5.90;99.40;;;;;;5026837;28;20961;-69
2024/01/22 08:34:27;;;;;;;9.53;4.47;;;5.90;99.40;;;;;;5042636;28;20192;-69
2024/01/22 08:36:54;;;;;;;8.23;4.30;;;5.90;99.50;;;;;;5042313;28;20259;-69
2024/01/22 08:39:21;;;;;;;7.80;4.03;;;5.90;99.50;;;;;;5044902;28;20300;-70
2024/01/22 08:41:48;;;;;;;8.83;4.23;;;5.90;99.60;;;;;;5032587;28;20614;-68
2024/01/22 08:44:16;;;;;;;7.43;4.80;;;5.90;99.70;;;;;;5044160;28;20286;-68
2024/01/22 08:46:44;;;;;;;6.37;4.27;;;6.00;99.90;;;;;;5042063;28;20612;-69
2024/01/22 08:49:13;;;;;;;5.53;3.40;;;5.90;99.80;;;;;;5020395;28;20196;-68
2024/01/22 08:51:40;;;;;;;6.57;3.90;;;6.00;99.90;;;;;;5019836;28;20211;-71
2024/01/22 08:54:07;;;;;;;6.23;3.57;;;6.00;99.90;;;;;;5053041;28;20221;-69
2024/01/22 08:56:34;;;;;;;9.73;3.80;;;6.00;99.90;;;;;;5047836;28;20203;-69
2024/01/22 08:59:01;;;;;;;4.77;3.07;;;6.00;99.90;;;;;;5017378;28;20224;-69
2024/01/22 09:01:29;;;;;;;8.43;3.73;;;6.00;99.90;;;;;;5044506;28;20903;-69
2024/01/22 09:03:57;;;;;;;6.17;3.80;;;6.10;99.90;;;;;;5042670;28;20230;-68
2024/01/22 09:06:24;;;;;;;8.10;3.97;;;6.00;99.90;;;;;;5035196;28;20214;-70
2024/01/22 09:08:51;;;;;;;6.30;3.93;;;6.10;99.90;;;;;;5035858;28;20204;-70
2024/01/22 09:11:20;;;;;;;6.97;3.97;;;6.10;99.90;;;;;;5029090;28;20575;-69
2024/01/22 09:13:47;;;;;;;8.00;3.57;;;6.10;99.90;;;;;;5043821;28;20210;-70
2024/01/22 09:16:15;;;;;;;8.33;4.40;;;6.10;99.90;;;;;;5038802;28;20301;-68
2024/01/22 09:18:43;;;;;;;7.47;4.50;;;6.00;99.90;;;;;;5053430;28;20329;-69
2024/01/22 09:21:10;;;;;;;8.93;4.40;;;6.00;99.90;;;;;;5032076;28;20284;-69
2024/01/22 09:23:37;;;;;;;9.07;4.00;;;6.00;99.90;;;;;;5030714;28;20273;-69
2024/01/22 09:26:05;;;;;;;5.33;3.80;;;6.00;99.90;;;;;;5047708;28;20219;-69
2024/01/22 09:28:32;;;;;;;7.93;4.03;;;5.90;99.90;;;;;;5030864;28;20297;-69
2024/01/22 09:30:59;;;;;;;8.37;4.17;;;5.90;99.90;;;;;;5037026;28;20203;-68
2024/01/22 09:33:27;;;;;;;9.23;3.87;;;5.80;99.90;;;;;;5043557;28;20221;-69
2024/01/22 09:35:56;;;;;;;6.30;4.20;;;5.80;99.90;;;;;;5024264;28;20657;-68
2024/01/22 09:38:23;;;;;;;8.23;4.60;;;5.80;99.90;;;;;;5035566;28;20300;-67
2024/01/22 09:40:51;;;;;;;6.50;3.97;;;5.70;99.90;;;;;;5043231;28;20207;-69
2024/01/22 09:43:18;;;;;;;8.20;4.37;;;5.70;99.90;;;;;;5046708;28;20199;-70
2024/01/22 09:45:48;;;;;;;7.90;4.20;;;5.70;99.90;;;;;;5038726;28;20207;-67
2024/01/22 09:48:15;;;;;;;7.83;4.37;;;5.70;99.90;;;;;;5029225;28;20527;-69
2024/01/22 09:50:42;;;;;;;9.10;4.47;;;5.70;99.90;;;;;;5023194;28;20265;-69
2024/01/22 09:53:12;;;;;;;8.27;4.60;;;5.70;99.90;;;;;;5038758;28;20193;-68
2024/01/22 09:55:41;;;;;;;8.07;5.03;;;5.70;99.90;;;;;;5031156;28;20198;-68
2024/01/22 09:58:09;;;;;;;10.33;4.80;;;5.60;99.90;;;;;;5046270;28;20194;-69
2024/01/22 10:00:38;;;;;;;9.43;4.63;;;5.90;99.90;;;;;;5040485;28;20212;-69
2024/01/22 10:03:06;;;;;;;7.73;4.43;;;5.70;99.90;;;;;;5029165;28;20256;-69
2024/01/22 10:05:34;;;;;;;8.60;4.63;;;5.70;99.90;;;;;;5040029;28;20234;-68
2024/01/22 10:08:01;;;;;;;7.13;4.50;;;5.70;99.90;;;;;;5020102;28;20219;-69
2024/01/22 10:10:30;;;;;;;6.73;3.73;;;5.70;99.90;;;;;;5031765;28;20198;-69
2024/01/22 10:12:58;;;;;;;7.43;3.97;;;5.80;99.90;;;;;;5033814;28;20306;-68
2024/01/22 10:15:28;;;;;;;7.93;4.30;;;5.80;99.90;;;;;;5047468;28;20326;-66
2024/01/22 10:18:07;;;;;;;5.83;3.63;;;5.80;99.90;;;;;;5030799;28;20193;-64
2024/01/22 10:20:34;;;;;;;6.97;4.43;;;5.80;99.90;;;;;;5045231;28;20222;-64
2024/01/22 10:23:01;;;;;;;8.17;4.47;;;5.80;99.90;;;;;;5038576;28;20290;-65
2024/01/22 10:25:30;;;;;;;8.87;4.37;;;5.90;99.90;;;;;;5040296;28;20197;-66
2024/01/22 10:28:11;;;;;;;8.27;4.10;;;5.90;99.90;;;;;;5043518;28;20645;-66
2024/01/22 10:30:40;;;;;;;8.50;4.17;;;5.90;99.90;;;;;;5049121;28;20298;-66
2024/01/22 10:33:14;;;;;;;6.67;4.17;;;6.00;99.90;;;;;;5033834;28;20195;-66
2024/01/22 10:35:42;;;;;;;9.07;4.57;;;6.00;99.90;;;;;;5045264;28;20199;-65
2024/01/22 10:38:13;;;;;;;8.93;4.57;;;6.00;99.90;;;;;;5022618;28;20203;-66
2024/01/22 10:40:45;;;;;;;8.13;4.37;;;6.00;99.90;;;;;;5014947;28;20220;-66
2024/01/22 10:43:20;;;;;;;7.50;4.07;;;6.00;99.90;;;;;;5043853;28;20203;-65
2024/01/22 10:45:48;;;;;;;8.03;3.63;;;6.00;99.90;;;;;;5029849;28;20244;-65
2024/01/22 10:48:17;;;;;;;5.87;3.67;;;6.10;99.90;;;;;;5039669;28;20205;-65
2024/01/22 10:50:45;;;;;;;7.90;4.40;;;6.10;99.90;;;;;;5044867;28;20196;-64
2024/01/22 10:53:12;;;;;;;5.87;4.10;;;6.10;99.90;;;;;;5045356;28;20226;-65
2024/01/22 10:55:41;;;;;;;6.70;4.27;;;6.20;99.90;;;;;;5040502;28;20533;-65
2024/01/22 10:58:22;;;;;;;8.83;4.53;;;6.20;99.90;;;;;;5046101;28;20199;-64
2024/01/22 11:00:52;;;;;;;8.43;3.97;;;6.20;99.90;;;;;;5033849;28;20224;-64
2024/01/22 11:03:20;;;;;;;8.40;4.57;;;6.20;99.90;;;;;;5037674;28;20276;-65
2024/01/22 11:05:48;;;;;;;7.37;3.93;;;6.20;99.90;;;;;;5054221;28;20220;-66
2024/01/22 11:08:20;;;;;;;5.70;3.80;;;6.30;99.90;;;;;;5046109;28;20207;-65
2024/01/22 11:10:52;;;;;;;8.47;4.00;;;6.30;99.90;;;;;;5037105;28;20187;-65
2024/01/22 11:13:19;;;;;;;7.03;3.77;;;6.30;99.90;;;;;;5041846;28;20279;-65
2024/01/22 11:15:46;;;;;;;8.57;4.40;;;6.30;99.90;;;;;;5031894;28;20225;-64
2024/01/22 11:18:14;;;;;;;11.20;4.93;;;6.40;99.90;;;;;;5029682;28;20289;-64
2024/01/22 11:20:41;;;;;;;7.30;4.27;;;6.40;99.90;;;;;;5045240;28;20212;-65
2024/01/22 11:23:09;;;;;;;7.77;4.00;;;6.40;99.90;;;;;;5049257;28;20203;-65
2024/01/22 11:25:37;;;;;;;7.77;4.10;;;6.40;99.90;;;;;;5032823;28;20363;-66
2024/01/22 11:28:09;;;;;;;8.17;4.53;;;6.50;99.90;;;;;;5038576;28;20254;-66
2024/01/22 11:30:38;;;;;;;7.87;4.17;;;6.50;99.90;;;;;;5035707;28;20668;-66
2024/01/22 11:33:34;;;;;;;7.03;3.90;;;6.50;99.90;;;;;;5035494;28;20616;-66
2024/01/22 11:36:02;;;;;;;5.70;3.70;;;6.50;99.90;;;;;;5040475;28;20391;-65
2024/01/22 11:38:55;;;;;;;5.47;3.53;;;6.50;99.90;;;;;;5032786;28;20196;-65
2024/01/22 11:41:29;;;;;;;6.17;3.33;;;6.50;99.90;;;;;;5043550;28;20198;-66
2024/01/22 11:43:58;;;;;;;6.23;3.47;;;6.60;99.90;;;;;;5042704;28;20608;-64
2024/01/22 11:46:26;;;;;;;6.27;3.90;;;6.60;99.90;;;;;;5033262;28;20209;-66
2024/01/22 11:48:54;;;;;;;5.63;3.60;;;6.50;99.90;;;;;;5040380;28;20204;-65
2024/01/22 11:51:25;;;;;;;6.20;3.73;;;6.50;99.90;;;;;;5047273;28;20206;-66
2024/01/22 11:53:54;;;;;;;13.33;4.70;;;6.60;99.90;;;;;;5037156;28;20757;-64
2024/01/22 11:56:25;;;;;;;6.70;4.10;;;6.60;99.90;;;;;;5041660;28;20251;-65
2024/01/22 11:59:00;;;;;;;7.20;4.13;;;6.60;99.90;;;;;;5041393;28;20201;-65
2024/01/22 12:01:28;;;;;;;8.77;4.20;;;6.60;99.90;;;;;;5036182;28;20226;-65
2024/01/22 12:03:55;;;;;;;7.07;4.40;;;6.60;99.90;;;;;;5040252;28;20232;-65
2024/01/22 12:06:22;;;;;;;7.07;4.17;;;6.60;99.90;;;;;;5022294;28;20295;-65
2024/01/22 12:08:57;;;;;;;10.13;4.43;;;6.60;99.90;;;;;;5029736;28;20285;-65
2024/01/22 12:11:25;;;;;;;5.83;3.63;;;6.60;99.90;;;;;;5013756;28;20209;-65
2024/01/22 12:13:52;;;;;;;7.60;4.00;;;6.60;99.90;;;;;;5041716;28;20201;-65
2024/01/22 12:16:20;;;;;;;8.53;4.00;;;6.60;99.90;;;;;;5034967;28;20202;-65
2024/01/22 12:18:49;;;;;;;8.27;4.57;;;6.60;99.90;;;;;;5031135;28;20205;-65
2024/01/22 12:21:16;;;;;;;8.30;4.60;;;6.60;99.90;;;;;;5042805;28;20256;-66
2024/01/22 12:23:43;;;;;;;7.20;4.03;;;6.60;99.90;;;;;;5039229;28;20204;-64
2024/01/22 12:26:21;;;;;;;8.13;4.10;;;6.60;99.90;;;;;;5031047;28;20259;-64
2024/01/22 12:28:51;;;;;;;5.00;3.40;;;6.60;99.90;;;;;;5035888;28;20201;-64
2024/01/22 12:31:23;;;;;;;6.80;4.00;;;6.60;99.90;;;;;;5031163;28;20551;-66
2024/01/22 12:33:53;;;;;;;7.03;3.97;;;6.60;99.90;;;;;;5044410;28;20182;-66
2024/01/22 12:36:26;;;;;;;7.67;3.70;;;6.50;99.90;;;;;;5044011;28;20226;-66
2024/01/22 12:38:55;;;;;;;6.43;3.80;;;6.50;99.90;;;;;;5035919;28;20207;-66
2024/01/22 12:41:24;;;;;;;8.23;4.60;;;6.50;99.90;;;;;;5033649;28;20312;-65
2024/01/22 12:43:56;;;;;;;7.63;4.10;;;6.50;99.90;;;;;;5039663;28;20194;-65
2024/01/22 12:46:24;;;;;;;8.03;4.80;;;6.50;99.90;;;;;;5031116;28;20223;-65
2024/01/22 12:48:55;;;;;;;8.40;4.67;;;6.50;99.90;;;;;;5035452;28;20287;-65
2024/01/22 12:51:26;;;;;;;6.47;3.93;;;6.50;99.90;;;;;;5025062;28;20199;-66
2024/01/22 12:53:53;;;;;;;5.90;4.07;;;6.60;99.90;;;;;;5030225;28;20285;-66
2024/01/22 12:56:20;;;;;;;7.60;3.93;;;6.60;99.90;;;;;;5038684;28;20621;-65
2024/01/22 12:58:48;;;;;;;6.77;4.00;;;6.50;99.90;;;;;;5039762;28;20275;-64
2024/01/22 13:01:15;;;;;;;7.57;4.40;;;6.60;99.90;;;;;;5047488;28;20517;-66